sensor_id;sensor_type;location;lat;lon;timestamp;pressure;altitude;pressure_sealevel;temperature;humidity
43814;BME280;29669;55.706;37.656;2022-12-11T00:00:04;99134.59;;;2.52;nan
43814;BME280;29669;55.706;37.656;2022-12-11T00:02:52;99149.97;;;2.52;nan
43814;BME280;29669;55.706;37.656;2022-12-11T00:05:40;99144.72;;;2.53;nan
43814;BME280;29669;55.706;37.656;2022-12-11T00:08:28;99148.22;;;2.52;nan
43814;BME280;29669;55.706;37.656;2022-12-11T00:11:16;99141.09;;;2.56;nan
43814;BME280;29669;55.706;37.656;2022-12-11T00:14:04;99149.03;;;2.53;nan
43814;BME280;29669;55.706;37.656;2022-12-11T00:16:52;99137.41;;;2.49;nan
43814;BME280;29669;55.706;37.656;2022-12-11T00:19:40;99128.13;;;2.48;nan
43814;BME280;29669;55.706;37.656;2022-12-11T00:22:30;99131.19;;;2.42;nan
43814;BME280;29669;55.706;37.656;2022-12-11T00:25:19;99136.19;;;2.43;nan
43814;BME280;29669;55.706;37.656;2022-12-11T00:28:06;99132.94;;;2.41;nan
43814;BME280;29669;55.706;37.656;2022-12-11T00:30:55;99137.00;;;2.44;nan
43814;BME280;29669;55.706;37.656;2022-12-11T00:33:43;99135.22;;;2.44;nan
43814;BME280;29669;55.706;37.656;2022-12-11T00:36:31;99135.81;;;2.48;nan
43814;BME280;29669;55.706;37.656;2022-12-11T00:39:19;99128.00;;;2.49;nan
43814;BME280;29669;55.706;37.656;2022-12-11T00:42:07;99115.44;;;2.46;nan
43814;BME280;29669;55.706;37.656;2022-12-11T00:44:55;99120.44;;;2.48;nan
43814;BME280;29669;55.706;37.656;2022-12-11T00:47:43;99128.78;;;2.50;nan
43814;BME280;29669;55.706;37.656;2022-12-11T00:50:32;99124.34;;;2.52;nan
43814;BME280;29669;55.706;37.656;2022-12-11T00:53:20;99132.72;;;2.54;nan
43814;BME280;29669;55.706;37.656;2022-12-11T00:56:16;99138.53;;;2.56;nan
43814;BME280;29669;55.706;37.656;2022-12-11T00:59:04;99138.53;;;2.56;nan
43814;BME280;29669;55.706;37.656;2022-12-11T01:01:58;99147.16;;;2.55;nan
43814;BME280;29669;55.706;37.656;2022-12-11T01:04:50;99148.34;;;2.51;nan
43814;BME280;29669;55.706;37.656;2022-12-11T01:07:38;99149.47;;;2.58;nan
43814;BME280;29669;55.706;37.656;2022-12-11T01:10:27;99154.34;;;2.61;nan
43814;BME280;29669;55.706;37.656;2022-12-11T01:13:16;99161.75;;;2.64;nan
43814;BME280;29669;55.706;37.656;2022-12-11T01:16:10;99162.72;;;2.63;nan
43814;BME280;29669;55.706;37.656;2022-12-11T01:19:04;99159.75;;;2.67;nan
43814;BME280;29669;55.706;37.656;2022-12-11T01:21:53;99152.72;;;2.60;nan
43814;BME280;29669;55.706;37.656;2022-12-11T01:24:42;99160.38;;;2.60;nan
43814;BME280;29669;55.706;37.656;2022-12-11T01:27:32;99157.97;;;2.58;nan
43814;BME280;29669;55.706;37.656;2022-12-11T01:30:26;99154.84;;;2.55;nan
43814;BME280;29669;55.706;37.656;2022-12-11T01:33:17;99147.53;;;2.50;nan
43814;BME280;29669;55.706;37.656;2022-12-11T01:36:18;99142.00;;;2.45;nan
43814;BME280;29669;55.706;37.656;2022-12-11T01:39:07;99153.16;;;2.44;nan
43814;BME280;29669;55.706;37.656;2022-12-11T01:41:57;99147.25;;;2.44;nan
43814;BME280;29669;55.706;37.656;2022-12-11T01:48:20;99147.94;;;2.46;nan
43814;BME280;29669;55.706;37.656;2022-12-11T01:51:13;99150.50;;;2.46;nan
43814;BME280;29669;55.706;37.656;2022-12-11T01:54:11;99149.66;;;2.45;nan
43814;BME280;29669;55.706;37.656;2022-12-11T01:57:03;99161.16;;;2.51;nan
43814;BME280;29669;55.706;37.656;2022-12-11T01:59:58;99146.72;;;2.50;nan
43814;BME280;29669;55.706;37.656;2022-12-11T02:02:59;99156.41;;;2.46;nan
43814;BME280;29669;55.706;37.656;2022-12-11T02:05:49;99146.78;;;2.39;nan
43814;BME280;29669;55.706;37.656;2022-12-11T02:08:39;99147.75;;;2.38;nan
43814;BME280;29669;55.706;37.656;2022-12-11T02:11:42;99161.59;;;2.35;nan
43814;BME280;29669;55.706;37.656;2022-12-11T02:18:12;99155.78;;;2.33;nan
43814;BME280;29669;55.706;37.656;2022-12-11T02:21:12;99177.91;;;2.34;nan
43814;BME280;29669;55.706;37.656;2022-12-11T02:27:42;99177.66;;;2.37;nan
43814;BME280;29669;55.706;37.656;2022-12-11T02:30:33;99200.84;;;2.36;nan
43814;BME280;29669;55.706;37.656;2022-12-11T02:33:35;99193.56;;;2.41;nan
43814;BME280;29669;55.706;37.656;2022-12-11T02:36:33;99197.50;;;2.45;nan
43814;BME280;29669;55.706;37.656;2022-12-11T02:39:24;99204.09;;;2.38;nan
43814;BME280;29669;55.706;37.656;2022-12-11T02:42:14;99199.47;;;2.32;nan
43814;BME280;29669;55.706;37.656;2022-12-11T02:45:04;99205.75;;;2.28;nan
43814;BME280;29669;55.706;37.656;2022-12-11T02:47:56;99200.06;;;2.24;nan
43814;BME280;29669;55.706;37.656;2022-12-11T02:50:47;99205.31;;;2.23;nan
43814;BME280;29669;55.706;37.656;2022-12-11T02:53:39;99199.50;;;2.21;nan
43814;BME280;29669;55.706;37.656;2022-12-11T02:59:51;99216.94;;;2.27;nan
43814;BME280;29669;55.706;37.656;2022-12-11T03:02:54;99213.69;;;2.25;nan
43814;BME280;29669;55.706;37.656;2022-12-11T03:05:44;99224.56;;;2.17;nan
43814;BME280;29669;55.706;37.656;2022-12-11T03:08:34;99226.56;;;2.14;nan
43814;BME280;29669;55.706;37.656;2022-12-11T03:11:30;99237.34;;;2.17;nan
43814;BME280;29669;55.706;37.656;2022-12-11T03:14:22;99230.97;;;2.12;nan
43814;BME280;29669;55.706;37.656;2022-12-11T03:17:16;99218.41;;;2.09;nan
43814;BME280;29669;55.706;37.656;2022-12-11T03:23:21;99230.28;;;2.10;nan
43814;BME280;29669;55.706;37.656;2022-12-11T03:26:19;99250.78;;;2.10;nan
43814;BME280;29669;55.706;37.656;2022-12-11T03:29:20;99247.94;;;2.13;nan
43814;BME280;29669;55.706;37.656;2022-12-11T03:32:17;99253.06;;;2.13;nan
43814;BME280;29669;55.706;37.656;2022-12-11T03:35:18;99254.72;;;2.14;nan
43814;BME280;29669;55.706;37.656;2022-12-11T03:38:19;99252.59;;;2.19;nan
43814;BME280;29669;55.706;37.656;2022-12-11T03:41:12;99263.19;;;2.14;nan
43814;BME280;29669;55.706;37.656;2022-12-11T03:44:06;99261.56;;;2.13;nan
43814;BME280;29669;55.706;37.656;2022-12-11T03:47:06;99260.75;;;2.13;nan
43814;BME280;29669;55.706;37.656;2022-12-11T03:49:56;99255.75;;;2.11;nan
43814;BME280;29669;55.706;37.656;2022-12-11T03:52:47;99262.63;;;2.11;nan
43814;BME280;29669;55.706;37.656;2022-12-11T03:55:40;99274.72;;;2.09;nan
43814;BME280;29669;55.706;37.656;2022-12-11T03:58:35;99274.16;;;2.05;nan
43814;BME280;29669;55.706;37.656;2022-12-11T04:01:24;99283.13;;;2.00;nan
43814;BME280;29669;55.706;37.656;2022-12-11T04:04:18;99284.09;;;1.99;nan
43814;BME280;29669;55.706;37.656;2022-12-11T04:07:09;99285.56;;;2.01;nan
43814;BME280;29669;55.706;37.656;2022-12-11T04:10:00;99293.25;;;2.01;nan
43814;BME280;29669;55.706;37.656;2022-12-11T04:12:53;99298.25;;;2.03;nan
43814;BME280;29669;55.706;37.656;2022-12-11T04:15:52;99291.50;;;2.02;nan
43814;BME280;29669;55.706;37.656;2022-12-11T04:18:42;99303.97;;;2.06;nan
43814;BME280;29669;55.706;37.656;2022-12-11T04:21:49;99304.09;;;1.93;nan
43814;BME280;29669;55.706;37.656;2022-12-11T04:24:59;99291.53;;;1.90;nan
43814;BME280;29669;55.706;37.656;2022-12-11T04:27:51;99293.41;;;1.88;nan
43814;BME280;29669;55.706;37.656;2022-12-11T04:30:40;99300.75;;;1.93;nan
43814;BME280;29669;55.706;37.656;2022-12-11T04:33:37;99311.09;;;1.80;nan
43814;BME280;29669;55.706;37.656;2022-12-11T04:36:26;99306.69;;;1.71;nan
43814;BME280;29669;55.706;37.656;2022-12-11T04:39:22;99304.25;;;1.70;nan
43814;BME280;29669;55.706;37.656;2022-12-11T04:42:10;99307.38;;;1.73;nan
43814;BME280;29669;55.706;37.656;2022-12-11T04:44:59;99299.34;;;1.78;nan
43814;BME280;29669;55.706;37.656;2022-12-11T04:47:47;99312.72;;;1.81;nan
43814;BME280;29669;55.706;37.656;2022-12-11T04:50:34;99308.78;;;1.77;nan
43814;BME280;29669;55.706;37.656;2022-12-11T04:53:22;99301.69;;;1.81;nan
43814;BME280;29669;55.706;37.656;2022-12-11T04:56:13;99305.28;;;1.78;nan
43814;BME280;29669;55.706;37.656;2022-12-11T04:59:01;99297.16;;;1.73;nan
43814;BME280;29669;55.706;37.656;2022-12-11T05:01:49;99303.44;;;1.69;nan
43814;BME280;29669;55.706;37.656;2022-12-11T05:04:36;99298.78;;;1.63;nan
43814;BME280;29669;55.706;37.656;2022-12-11T05:07:25;99297.06;;;1.64;nan
43814;BME280;29669;55.706;37.656;2022-12-11T05:10:13;99302.63;;;1.69;nan
43814;BME280;29669;55.706;37.656;2022-12-11T05:13:01;99304.38;;;1.68;nan
43814;BME280;29669;55.706;37.656;2022-12-11T05:15:48;99315.19;;;1.61;nan
43814;BME280;29669;55.706;37.656;2022-12-11T05:18:36;99316.94;;;1.60;nan
43814;BME280;29669;55.706;37.656;2022-12-11T05:21:24;99321.94;;;1.62;nan
43814;BME280;29669;55.706;37.656;2022-12-11T05:24:16;99331.13;;;1.64;nan
43814;BME280;29669;55.706;37.656;2022-12-11T05:27:04;99340.19;;;1.68;nan
43814;BME280;29669;55.706;37.656;2022-12-11T05:29:52;99340.53;;;1.64;nan
43814;BME280;29669;55.706;37.656;2022-12-11T05:32:45;99329.72;;;1.60;nan
43814;BME280;29669;55.706;37.656;2022-12-11T05:35:33;99345.06;;;1.60;nan
43814;BME280;29669;55.706;37.656;2022-12-11T05:38:22;99349.00;;;1.53;nan
43814;BME280;29669;55.706;37.656;2022-12-11T05:41:19;99363.31;;;1.56;nan
43814;BME280;29669;55.706;37.656;2022-12-11T05:44:11;99370.28;;;1.54;nan
43814;BME280;29669;55.706;37.656;2022-12-11T05:47:02;99372.97;;;1.52;nan
43814;BME280;29669;55.706;37.656;2022-12-11T05:50:07;99385.63;;;1.54;nan
43814;BME280;29669;55.706;37.656;2022-12-11T05:52:55;99394.00;;;1.56;nan
43814;BME280;29669;55.706;37.656;2022-12-11T05:55:43;99395.75;;;1.55;nan
43814;BME280;29669;55.706;37.656;2022-12-11T05:58:31;99418.41;;;1.49;nan
43814;BME280;29669;55.706;37.656;2022-12-11T06:01:23;99423.53;;;1.49;nan
43814;BME280;29669;55.706;37.656;2022-12-11T06:04:14;99416.13;;;1.57;nan
43814;BME280;29669;55.706;37.656;2022-12-11T06:07:03;99404.72;;;1.61;nan
43814;BME280;29669;55.706;37.656;2022-12-11T06:09:53;99424.38;;;1.60;nan
43814;BME280;29669;55.706;37.656;2022-12-11T06:12:44;99428.31;;;1.64;nan
43814;BME280;29669;55.706;37.656;2022-12-11T06:15:32;99432.63;;;1.64;nan
43814;BME280;29669;55.706;37.656;2022-12-11T06:18:20;99429.13;;;1.65;nan
43814;BME280;29669;55.706;37.656;2022-12-11T06:21:22;99440.41;;;1.73;nan
43814;BME280;29669;55.706;37.656;2022-12-11T06:24:11;99437.63;;;1.76;nan
43814;BME280;29669;55.706;37.656;2022-12-11T06:26:59;99443.22;;;1.81;nan
43814;BME280;29669;55.706;37.656;2022-12-11T06:29:46;99448.69;;;1.77;nan
43814;BME280;29669;55.706;37.656;2022-12-11T06:32:39;99461.00;;;1.83;nan
43814;BME280;29669;55.706;37.656;2022-12-11T06:35:27;99467.75;;;1.84;nan
43814;BME280;29669;55.706;37.656;2022-12-11T06:38:15;99457.38;;;1.85;nan
43814;BME280;29669;55.706;37.656;2022-12-11T06:41:05;99458.78;;;1.89;nan
43814;BME280;29669;55.706;37.656;2022-12-11T06:43:53;99462.06;;;1.91;nan
43814;BME280;29669;55.706;37.656;2022-12-11T06:46:41;99448.56;;;1.89;nan
43814;BME280;29669;55.706;37.656;2022-12-11T06:49:29;99446.13;;;1.88;nan
43814;BME280;29669;55.706;37.656;2022-12-11T06:52:17;99450.19;;;1.90;nan
43814;BME280;29669;55.706;37.656;2022-12-11T06:55:05;99453.47;;;1.92;nan
43814;BME280;29669;55.706;37.656;2022-12-11T06:57:59;99452.06;;;1.88;nan
43814;BME280;29669;55.706;37.656;2022-12-11T07:00:47;99456.34;;;1.77;nan
43814;BME280;29669;55.706;37.656;2022-12-11T07:03:35;99453.44;;;1.70;nan
43814;BME280;29669;55.706;37.656;2022-12-11T07:06:28;99466.34;;;1.80;nan
43814;BME280;29669;55.706;37.656;2022-12-11T07:09:16;99473.56;;;1.86;nan
43814;BME280;29669;55.706;37.656;2022-12-11T07:12:15;99469.50;;;1.83;nan
43814;BME280;29669;55.706;37.656;2022-12-11T07:15:07;99482.63;;;1.79;nan
43814;BME280;29669;55.706;37.656;2022-12-11T07:17:59;99474.25;;;1.77;nan
43814;BME280;29669;55.706;37.656;2022-12-11T07:20:47;99491.84;;;1.92;nan
43814;BME280;29669;55.706;37.656;2022-12-11T07:23:34;99486.38;;;1.97;nan
43814;BME280;29669;55.706;37.656;2022-12-11T07:26:22;99476.69;;;1.89;nan
43814;BME280;29669;55.706;37.656;2022-12-11T07:29:10;99482.66;;;2.01;nan
43814;BME280;29669;55.706;37.656;2022-12-11T07:31:58;99477.19;;;1.95;nan
43814;BME280;29669;55.706;37.656;2022-12-11T07:34:47;99494.41;;;1.92;nan
43814;BME280;29669;55.706;37.656;2022-12-11T07:37:41;99494.75;;;1.88;nan
43814;BME280;29669;55.706;37.656;2022-12-11T07:40:39;99509.03;;;1.79;nan
43814;BME280;29669;55.706;37.656;2022-12-11T07:43:27;99496.25;;;1.79;nan
43814;BME280;29669;55.706;37.656;2022-12-11T07:46:21;99499.16;;;1.86;nan
43814;BME280;29669;55.706;37.656;2022-12-11T07:49:09;99491.72;;;1.83;nan
43814;BME280;29669;55.706;37.656;2022-12-11T07:51:56;99481.69;;;1.80;nan
43814;BME280;29669;55.706;37.656;2022-12-11T07:54:44;99470.88;;;1.87;nan
43814;BME280;29669;55.706;37.656;2022-12-11T07:57:32;99487.19;;;1.98;nan
43814;BME280;29669;55.706;37.656;2022-12-11T08:00:21;99497.91;;;2.14;nan
43814;BME280;29669;55.706;37.656;2022-12-11T08:03:09;99522.00;;;2.22;nan
43814;BME280;29669;55.706;37.656;2022-12-11T08:05:57;99519.09;;;2.27;nan
43814;BME280;29669;55.706;37.656;2022-12-11T08:08:45;99504.50;;;2.27;nan
43814;BME280;29669;55.706;37.656;2022-12-11T08:12:09;99516.72;;;2.35;nan
43814;BME280;29669;55.706;37.656;2022-12-11T08:15:03;99528.16;;;2.42;nan
43814;BME280;29669;55.706;37.656;2022-12-11T08:17:52;99503.00;;;2.36;nan
43814;BME280;29669;55.706;37.656;2022-12-11T08:20:46;99518.13;;;2.39;nan
43814;BME280;29669;55.706;37.656;2022-12-11T08:23:36;99521.28;;;2.42;nan
43814;BME280;29669;55.706;37.656;2022-12-11T08:26:35;99521.41;;;2.41;nan
43814;BME280;29669;55.706;37.656;2022-12-11T08:29:30;99536.75;;;2.41;nan
43814;BME280;29669;55.706;37.656;2022-12-11T08:32:25;99519.53;;;2.32;nan
43814;BME280;29669;55.706;37.656;2022-12-11T08:35:14;99521.06;;;2.34;nan
43814;BME280;29669;55.706;37.656;2022-12-11T08:38:08;99536.75;;;2.41;nan
43814;BME280;29669;55.706;37.656;2022-12-11T08:40:58;99549.09;;;2.47;nan
43814;BME280;29669;55.706;37.656;2022-12-11T08:43:47;99547.38;;;2.47;nan
43814;BME280;29669;55.706;37.656;2022-12-11T08:46:41;99560.06;;;2.49;nan
43814;BME280;29669;55.706;37.656;2022-12-11T08:49:31;99555.88;;;2.48;nan
43814;BME280;29669;55.706;37.656;2022-12-11T08:52:22;99548.41;;;2.45;nan
43814;BME280;29669;55.706;37.656;2022-12-11T08:55:11;99563.66;;;2.46;nan
43814;BME280;29669;55.706;37.656;2022-12-11T08:58:00;99565.63;;;2.43;nan
43814;BME280;29669;55.706;37.656;2022-12-11T09:00:49;99556.47;;;2.40;nan
43814;BME280;29669;55.706;37.656;2022-12-11T09:03:39;99548.66;;;2.42;nan
43814;BME280;29669;55.706;37.656;2022-12-11T09:06:31;99564.94;;;2.41;nan
43814;BME280;29669;55.706;37.656;2022-12-11T09:09:20;99562.63;;;2.38;nan
43814;BME280;29669;55.706;37.656;2022-12-11T09:12:09;99575.75;;;2.33;nan
43814;BME280;29669;55.706;37.656;2022-12-11T09:14:59;99573.66;;;2.27;nan
43814;BME280;29669;55.706;37.656;2022-12-11T09:17:50;99563.53;;;2.26;nan
43814;BME280;29669;55.706;37.656;2022-12-11T09:20:38;99559.13;;;2.17;nan
43814;BME280;29669;55.706;37.656;2022-12-11T09:23:28;99584.03;;;2.26;nan
43814;BME280;29669;55.706;37.656;2022-12-11T09:26:19;99572.16;;;2.25;nan
43814;BME280;29669;55.706;37.656;2022-12-11T09:29:33;99559.94;;;2.17;nan
43814;BME280;29669;55.706;37.656;2022-12-11T09:32:21;99559.13;;;2.17;nan
43814;BME280;29669;55.706;37.656;2022-12-11T09:35:10;99568.66;;;2.26;nan
43814;BME280;29669;55.706;37.656;2022-12-11T09:37:58;99583.56;;;2.32;nan
43814;BME280;29669;55.706;37.656;2022-12-11T09:40:49;99599.63;;;2.45;nan
43814;BME280;29669;55.706;37.656;2022-12-11T09:47:33;99617.34;;;2.59;nan
43814;BME280;29669;55.706;37.656;2022-12-11T09:50:31;99606.16;;;2.49;nan
43814;BME280;29669;55.706;37.656;2022-12-11T09:53:26;99611.53;;;2.46;nan
43814;BME280;29669;55.706;37.656;2022-12-11T09:56:32;99615.47;;;2.50;nan
43814;BME280;29669;55.706;37.656;2022-12-11T09:59:55;99631.19;;;2.56;nan
43814;BME280;29669;55.706;37.656;2022-12-11T10:06:22;99630.84;;;2.50;nan
43814;BME280;29669;55.706;37.656;2022-12-11T10:09:21;99624.91;;;2.49;nan
43814;BME280;29669;55.706;37.656;2022-12-11T10:12:28;99621.88;;;2.44;nan
43814;BME280;29669;55.706;37.656;2022-12-11T10:15:39;99622.09;;;2.30;nan
43814;BME280;29669;55.706;37.656;2022-12-11T10:18:31;99611.72;;;2.21;nan
43814;BME280;29669;55.706;37.656;2022-12-11T10:21:21;99608.47;;;2.19;nan
43814;BME280;29669;55.706;37.656;2022-12-11T10:24:23;99615.91;;;2.22;nan
43814;BME280;29669;55.706;37.656;2022-12-11T10:27:34;99592.38;;;2.06;nan
43814;BME280;29669;55.706;37.656;2022-12-11T10:30:35;99590.38;;;1.98;nan
43814;BME280;29669;55.706;37.656;2022-12-11T10:36:37;99605.03;;;1.96;nan
43814;BME280;29669;55.706;37.656;2022-12-11T10:39:30;99612.16;;;2.04;nan
43814;BME280;29669;55.706;37.656;2022-12-11T10:42:19;99618.56;;;2.09;nan
43814;BME280;29669;55.706;37.656;2022-12-11T10:45:15;99621.50;;;2.16;nan
43814;BME280;29669;55.706;37.656;2022-12-11T10:48:10;99621.97;;;2.21;nan
43814;BME280;29669;55.706;37.656;2022-12-11T10:51:04;99611.47;;;2.24;nan
43814;BME280;29669;55.706;37.656;2022-12-11T10:54:08;99596.13;;;2.24;nan
43814;BME280;29669;55.706;37.656;2022-12-11T10:57:06;99598.81;;;2.33;nan
43814;BME280;29669;55.706;37.656;2022-12-11T10:59:56;99585.41;;;2.30;nan
43814;BME280;29669;55.706;37.656;2022-12-11T11:02:45;99605.69;;;2.33;nan
43814;BME280;29669;55.706;37.656;2022-12-11T11:05:35;99592.66;;;2.25;nan
43814;BME280;29669;55.706;37.656;2022-12-11T11:08:25;99585.88;;;2.24;nan
43814;BME280;29669;55.706;37.656;2022-12-11T11:11:23;99587.03;;;2.09;nan
43814;BME280;29669;55.706;37.656;2022-12-11T11:14:18;99580.50;;;2.05;nan
43814;BME280;29669;55.706;37.656;2022-12-11T11:17:13;99590.72;;;2.05;nan
43814;BME280;29669;55.706;37.656;2022-12-11T11:20:12;99582.34;;;2.03;nan
43814;BME280;29669;55.706;37.656;2022-12-11T11:23:12;99581.75;;;1.99;nan
43814;BME280;29669;55.706;37.656;2022-12-11T11:26:05;99580.16;;;1.98;nan
43814;BME280;29669;55.706;37.656;2022-12-11T11:28:55;99574.22;;;1.98;nan
43814;BME280;29669;55.706;37.656;2022-12-11T11:31:49;99575.84;;;1.99;nan
43814;BME280;29669;55.706;37.656;2022-12-11T11:34:42;99570.81;;;1.97;nan
43814;BME280;29669;55.706;37.656;2022-12-11T11:37:32;99567.69;;;1.93;nan
43814;BME280;29669;55.706;37.656;2022-12-11T11:43:19;99572.69;;;1.95;nan
43814;BME280;29669;55.706;37.656;2022-12-11T11:49:27;99582.91;;;1.84;nan
43814;BME280;29669;55.706;37.656;2022-12-11T11:52:36;99582.09;;;1.83;nan
43814;BME280;29669;55.706;37.656;2022-12-11T12:02:14;99574.88;;;1.77;nan
43814;BME280;29669;55.706;37.656;2022-12-11T12:05:13;99587.22;;;1.83;nan
43814;BME280;29669;55.706;37.656;2022-12-11T12:17:54;99594.63;;;1.75;nan
43814;BME280;29669;55.706;37.656;2022-12-11T12:20:59;99589.13;;;1.69;nan
43814;BME280;29669;55.706;37.656;2022-12-11T12:49:37;99601.72;;;1.48;nan
43814;BME280;29669;55.706;37.656;2022-12-11T12:52:34;99602.44;;;1.50;nan
43814;BME280;29669;55.706;37.656;2022-12-11T12:55:27;99601.00;;;1.46;nan
43814;BME280;29669;55.706;37.656;2022-12-11T13:01:24;99590.50;;;1.38;nan
43814;BME280;29669;55.706;37.656;2022-12-11T13:04:34;99582.97;;;1.37;nan
43814;BME280;29669;55.706;37.656;2022-12-11T13:10:41;99597.50;;;1.36;nan
43814;BME280;29669;55.706;37.656;2022-12-11T13:14:23;99592.63;;;1.44;nan
43814;BME280;29669;55.706;37.656;2022-12-11T13:16:51;99604.00;;;1.40;nan
43814;BME280;29669;55.706;37.656;2022-12-11T13:19:39;99597.44;;;1.49;nan
43814;BME280;29669;55.706;37.656;2022-12-11T13:22:29;99591.38;;;1.50;nan
43814;BME280;29669;55.706;37.656;2022-12-11T13:25:29;99586.25;;;1.50;nan
43814;BME280;29669;55.706;37.656;2022-12-11T13:34:16;99553.56;;;1.42;nan
43814;BME280;29669;55.706;37.656;2022-12-11T13:37:40;99551.00;;;1.42;nan
43814;BME280;29669;55.706;37.656;2022-12-11T13:40:36;99542.88;;;1.37;nan
43814;BME280;29669;55.706;37.656;2022-12-11T13:43:33;99547.03;;;1.38;nan
43814;BME280;29669;55.706;37.656;2022-12-11T13:46:28;99543.69;;;1.38;nan
43814;BME280;29669;55.706;37.656;2022-12-11T13:49:40;99553.38;;;1.45;nan
43814;BME280;29669;55.706;37.656;2022-12-11T13:52:30;99537.31;;;1.43;nan
43814;BME280;29669;55.706;37.656;2022-12-11T13:55:28;99534.31;;;1.49;nan
43814;BME280;29669;55.706;37.656;2022-12-11T13:58:20;99534.53;;;1.46;nan
43814;BME280;29669;55.706;37.656;2022-12-11T14:01:19;99538.94;;;1.44;nan
43814;BME280;29669;55.706;37.656;2022-12-11T14:07:00;99511.94;;;1.40;nan
43814;BME280;29669;55.706;37.656;2022-12-11T14:09:53;99521.38;;;1.40;nan
43814;BME280;29669;55.706;37.656;2022-12-11T14:19:52;99505.66;;;1.33;nan
43814;BME280;29669;55.706;37.656;2022-12-11T14:22:45;99503.81;;;1.35;nan
43814;BME280;29669;55.706;37.656;2022-12-11T14:25:42;99506.03;;;1.40;nan
43814;BME280;29669;55.706;37.656;2022-12-11T14:28:45;99491.97;;;1.34;nan
43814;BME280;29669;55.706;37.656;2022-12-11T14:31:42;99494.28;;;1.37;nan
43814;BME280;29669;55.706;37.656;2022-12-11T14:34:41;99505.22;;;1.39;nan
43814;BME280;29669;55.706;37.656;2022-12-11T14:38:48;99517.06;;;1.40;nan
43814;BME280;29669;55.706;37.656;2022-12-11T14:46:07;99521.16;;;1.43;nan
43814;BME280;29669;55.706;37.656;2022-12-11T14:49:41;99511.75;;;1.43;nan
43814;BME280;29669;55.706;37.656;2022-12-11T14:55:48;99497.31;;;1.42;nan
43814;BME280;29669;55.706;37.656;2022-12-11T14:59:04;99501.72;;;1.40;nan
43814;BME280;29669;55.706;37.656;2022-12-11T15:02:16;99501.50;;;1.32;nan
43814;BME280;29669;55.706;37.656;2022-12-11T15:05:16;99496.25;;;1.34;nan
43814;BME280;29669;55.706;37.656;2022-12-11T15:11:09;99475.38;;;1.40;nan
43814;BME280;29669;55.706;37.656;2022-12-11T15:14:04;99467.78;;;1.38;nan
43814;BME280;29669;55.706;37.656;2022-12-11T15:16:54;99473.72;;;1.39;nan
43814;BME280;29669;55.706;37.656;2022-12-11T15:20:06;99472.44;;;1.44;nan
43814;BME280;29669;55.706;37.656;2022-12-11T15:22:58;99458.75;;;1.45;nan
43814;BME280;29669;55.706;37.656;2022-12-11T15:25:57;99433.97;;;1.46;nan
43814;BME280;29669;55.706;37.656;2022-12-11T15:28:58;99410.16;;;1.45;nan
43814;BME280;29669;55.706;37.656;2022-12-11T15:32:18;99397.84;;;1.39;nan
43814;BME280;29669;55.706;37.656;2022-12-11T15:35:36;99401.09;;;1.41;nan
43814;BME280;29669;55.706;37.656;2022-12-11T15:38:49;99391.91;;;1.39;nan
43814;BME280;29669;55.706;37.656;2022-12-11T15:41:55;99375.28;;;1.33;nan
43814;BME280;29669;55.706;37.656;2022-12-11T15:45:14;99390.50;;;1.35;nan
43814;BME280;29669;55.706;37.656;2022-12-11T15:51:59;99396.44;;;1.35;nan
43814;BME280;29669;55.706;37.656;2022-12-11T15:54:46;99413.06;;;1.41;nan
43814;BME280;29669;55.706;37.656;2022-12-11T15:57:35;99415.16;;;1.47;nan
43814;BME280;29669;55.706;37.656;2022-12-11T16:00:23;99404.94;;;1.47;nan
43814;BME280;29669;55.706;37.656;2022-12-11T16:03:13;99398.41;;;1.54;nan
43814;BME280;29669;55.706;37.656;2022-12-11T16:06:01;99390.63;;;1.55;nan
43814;BME280;29669;55.706;37.656;2022-12-11T16:08:49;99388.88;;;1.56;nan
43814;BME280;29669;55.706;37.656;2022-12-11T16:11:37;99373.53;;;1.56;nan
43814;BME280;29669;55.706;37.656;2022-12-11T16:14:25;99353.09;;;1.56;nan
43814;BME280;29669;55.706;37.656;2022-12-11T16:17:14;99364.34;;;1.53;nan
43814;BME280;29669;55.706;37.656;2022-12-11T16:20:02;99363.09;;;1.59;nan
43814;BME280;29669;55.706;37.656;2022-12-11T16:25:39;99365.53;;;1.71;nan
43814;BME280;29669;55.706;37.656;2022-12-11T16:28:27;99345.75;;;1.73;nan
43814;BME280;29669;55.706;37.656;2022-12-11T16:31:16;99334.25;;;1.68;nan
43814;BME280;29669;55.706;37.656;2022-12-11T16:36:52;99352.16;;;1.68;nan
43814;BME280;29669;55.706;37.656;2022-12-11T16:42:29;99341.69;;;1.71;nan
43814;BME280;29669;55.706;37.656;2022-12-11T16:45:19;99330.28;;;1.75;nan
43814;BME280;29669;55.706;37.656;2022-12-11T16:48:08;99337.72;;;1.78;nan
43814;BME280;29669;55.706;37.656;2022-12-11T16:50:56;99330.75;;;1.80;nan
43814;BME280;29669;55.706;37.656;2022-12-11T16:56:32;99316.47;;;1.77;nan
43814;BME280;29669;55.706;37.656;2022-12-11T16:59:20;99307.84;;;1.78;nan
43814;BME280;29669;55.706;37.656;2022-12-11T17:02:11;99309.94;;;1.84;nan
43814;BME280;29669;55.706;37.656;2022-12-11T17:04:59;99297.13;;;1.84;nan
43814;BME280;29669;55.706;37.656;2022-12-11T17:07:47;99295.28;;;1.86;nan
43814;BME280;29669;55.706;37.656;2022-12-11T17:13:26;99277.69;;;1.82;nan
43814;BME280;29669;55.706;37.656;2022-12-11T17:16:21;99263.88;;;1.84;nan
43814;BME280;29669;55.706;37.656;2022-12-11T17:19:11;99243.28;;;1.86;nan
43814;BME280;29669;55.706;37.656;2022-12-11T17:21:59;99229.00;;;1.83;nan
43814;BME280;29669;55.706;37.656;2022-12-11T17:24:47;99225.50;;;1.84;nan
43814;BME280;29669;55.706;37.656;2022-12-11T17:27:36;99224.53;;;1.85;nan
43814;BME280;29669;55.706;37.656;2022-12-11T17:30:25;99223.38;;;1.89;nan
43814;BME280;29669;55.706;37.656;2022-12-11T17:33:13;99209.28;;;1.95;nan
43814;BME280;29669;55.706;37.656;2022-12-11T17:36:32;99201.19;;;2.11;nan
43814;BME280;29669;55.706;37.656;2022-12-11T17:42:20;99183.72;;;2.16;nan
43814;BME280;29669;55.706;37.656;2022-12-11T17:45:09;99189.06;;;2.13;nan
43814;BME280;29669;55.706;37.656;2022-12-11T17:47:58;99187.25;;;2.04;nan
43814;BME280;29669;55.706;37.656;2022-12-11T17:56:22;99204.00;;;2.08;nan
43814;BME280;29669;55.706;37.656;2022-12-11T18:04:47;99200.97;;;2.14;nan